sensor_id;sensor_type;location;lat;lon;timestamp;pressure;altitude;pressure_sealevel;temperature;humidity
76448;BME280;65284;51.040;13.722;2024-02-15T00:02:15;100166.13;;;7.94;100.00
76448;BME280;65284;51.040;13.722;2024-02-15T00:04:42;100164.31;;;7.94;100.00
76448;BME280;65284;51.040;13.722;2024-02-15T00:07:08;100163.47;;;7.94;100.00
76448;BME280;65284;51.040;13.722;2024-02-15T00:09:35;100167.13;;;7.93;100.00
76448;BME280;65284;51.040;13.722;2024-02-15T00:12:02;100164.59;;;7.91;100.00
76448;BME280;65284;51.040;13.722;2024-02-15T00:14:29;100170.72;;;7.92;100.00
76448;BME280;65284;51.040;13.722;2024-02-15T00:16:55;100172.69;;;7.90;100.00
76448;BME280;65284;51.040;13.722;2024-02-15T00:19:22;100175.84;;;7.84;100.00
76448;BME280;65284;51.040;13.722;2024-02-15T00:21:49;100174.91;;;7.85;100.00
76448;BME280;65284;51.040;13.722;2024-02-15T00:24:16;100167.69;;;7.87;100.00
76448;BME280;65284;51.040;13.722;2024-02-15T00:26:43;100172.97;;;7.87;100.00
76448;BME280;65284;51.040;13.722;2024-02-15T00:29:09;100179.91;;;7.88;100.00
76448;BME280;65284;51.040;13.722;2024-02-15T00:31:36;100174.63;;;7.88;100.00
76448;BME280;65284;51.040;13.722;2024-02-15T00:34:05;100166.25;;;7.83;100.00
76448;BME280;65284;51.040;13.722;2024-02-15T00:36:33;100169.63;;;7.85;100.00
76448;BME280;65284;51.040;13.722;2024-02-15T00:38:59;100168.50;;;7.87;100.00
76448;BME280;65284;51.040;13.722;2024-02-15T00:41:26;100175.44;;;7.88;100.00
76448;BME280;65284;51.040;13.722;2024-02-15T00:43:54;100167.69;;;7.87;100.00
76448;BME280;65284;51.040;13.722;2024-02-15T00:46:20;100168.63;;;7.86;100.00
76448;BME280;65284;51.040;13.722;2024-02-15T00:48:47;100167.69;;;7.87;100.00
76448;BME280;65284;51.040;13.722;2024-02-15T00:51:14;100170.84;;;7.81;100.00
76448;BME280;65284;51.040;13.722;2024-02-15T00:53:40;100161.69;;;7.85;100.00
76448;BME280;65284;51.040;13.722;2024-02-15T00:56:07;100159.31;;;7.82;100.00
76448;BME280;65284;51.040;13.722;2024-02-15T00:58:34;100162.91;;;7.81;100.00
76448;BME280;65284;51.040;13.722;2024-02-15T01:01:00;100158.34;;;7.83;100.00
76448;BME280;65284;51.040;13.722;2024-02-15T01:03:27;100160.84;;;7.74;100.00
76448;BME280;65284;51.040;13.722;2024-02-15T01:05:53;100161.25;;;7.80;100.00
76448;BME280;65284;51.040;13.722;2024-02-15T01:08:20;100156.25;;;7.77;100.00
76448;BME280;65284;51.040;13.722;2024-02-15T01:10:46;100159.59;;;7.79;100.00
76448;BME280;65284;51.040;13.722;2024-02-15T01:13:13;100166.53;;;7.80;100.00
76448;BME280;65284;51.040;13.722;2024-02-15T01:15:40;100168.75;;;7.74;100.00
76448;BME280;65284;51.040;13.722;2024-02-15T01:18:08;100169.34;;;7.78;100.00
76448;BME280;65284;51.040;13.722;2024-02-15T01:20:34;100171.84;;;7.80;100.00
76448;BME280;65284;51.040;13.722;2024-02-15T01:23:02;100166.53;;;7.80;100.00
76448;BME280;65284;51.040;13.722;2024-02-15T01:25:29;100157.63;;;7.81;100.00
76448;BME280;65284;51.040;13.722;2024-02-15T01:27:56;100158.50;;;7.81;100.00
76448;BME280;65284;51.040;13.722;2024-02-15T01:30:23;100146.78;;;7.84;100.00
76448;BME280;65284;51.040;13.722;2024-02-15T01:32:49;100154.69;;;7.84;100.00
76448;BME280;65284;51.040;13.722;2024-02-15T01:35:16;100157.34;;;7.84;100.00
76448;BME280;65284;51.040;13.722;2024-02-15T01:37:42;100155.56;;;7.84;100.00
76448;BME280;65284;51.040;13.722;2024-02-15T01:40:09;100153.75;;;7.85;100.00
76448;BME280;65284;51.040;13.722;2024-02-15T01:42:39;100147.47;;;7.86;100.00
76448;BME280;65284;51.040;13.722;2024-02-15T01:45:06;100150.81;;;7.88;100.00
76448;BME280;65284;51.040;13.722;2024-02-15T01:47:32;100149.84;;;7.89;100.00
76448;BME280;65284;51.040;13.722;2024-02-15T01:49:59;100138.44;;;7.88;100.00
76448;BME280;65284;51.040;13.722;2024-02-15T01:52:26;100136.63;;;7.89;100.00
76448;BME280;65284;51.040;13.722;2024-02-15T01:54:52;100147.19;;;7.89;100.00
76448;BME280;65284;51.040;13.722;2024-02-15T01:57:20;100144.56;;;7.89;100.00
76448;BME280;65284;51.040;13.722;2024-02-15T01:59:51;100139.13;;;7.90;100.00
76448;BME280;65284;51.040;13.722;2024-02-15T02:02:18;100148.19;;;7.88;100.00
76448;BME280;65284;51.040;13.722;2024-02-15T02:04:46;100133.97;;;7.89;100.00
76448;BME280;65284;51.040;13.722;2024-02-15T02:07:13;100129.78;;;7.86;100.00
76448;BME280;65284;51.040;13.722;2024-02-15T02:09:41;100140.38;;;7.86;100.00
76448;BME280;65284;51.040;13.722;2024-02-15T02:12:07;100144.56;;;7.89;100.00
76448;BME280;65284;51.040;13.722;2024-02-15T02:14:34;100138.59;;;7.87;100.00
76448;BME280;65284;51.040;13.722;2024-02-15T02:17:13;100140.94;;;7.90;100.00
76448;BME280;65284;51.040;13.722;2024-02-15T02:19:41;100138.03;;;7.93;100.00
76448;BME280;65284;51.040;13.722;2024-02-15T02:22:09;100137.75;;;7.96;100.00
76448;BME280;65284;51.040;13.722;2024-02-15T02:24:40;100142.03;;;7.97;100.00
76448;BME280;65284;51.040;13.722;2024-02-15T02:27:13;100136.75;;;7.97;100.00
76448;BME280;65284;51.040;13.722;2024-02-15T02:29:43;100140.38;;;7.96;100.00
76448;BME280;65284;51.040;13.722;2024-02-15T02:32:12;100140.38;;;7.96;100.00
76448;BME280;65284;51.040;13.722;2024-02-15T02:34:38;100139.53;;;7.95;100.00
76448;BME280;65284;51.040;13.722;2024-02-15T02:37:07;100134.41;;;7.94;100.00
76448;BME280;65284;51.040;13.722;2024-02-15T02:39:34;100136.06;;;7.95;100.00
76448;BME280;65284;51.040;13.722;2024-02-15T02:42:01;100135.38;;;7.93;100.00
76448;BME280;65284;51.040;13.722;2024-02-15T02:44:27;100136.34;;;7.92;100.00
76448;BME280;65284;51.040;13.722;2024-02-15T02:46:54;100136.22;;;7.93;100.00
76448;BME280;65284;51.040;13.722;2024-02-15T02:49:21;100142.03;;;7.97;100.00
76448;BME280;65284;51.040;13.722;2024-02-15T02:51:48;100132.56;;;8.04;100.00
76448;BME280;65284;51.040;13.722;2024-02-15T02:54:14;100134.94;;;7.97;100.00
76448;BME280;65284;51.040;13.722;2024-02-15T02:56:41;100136.06;;;7.95;100.00
76448;BME280;65284;51.040;13.722;2024-02-15T02:59:10;100131.75;;;7.94;100.00
76448;BME280;65284;51.040;13.722;2024-02-15T03:01:36;100131.75;;;7.94;100.00
76448;BME280;65284;51.040;13.722;2024-02-15T03:04:03;100132.88;;;7.91;100.00
76448;BME280;65284;51.040;13.722;2024-02-15T03:06:29;100138.97;;;7.92;100.00
76448;BME280;65284;51.040;13.722;2024-02-15T03:08:56;100136.22;;;7.93;100.00
76448;BME280;65284;51.040;13.722;2024-02-15T03:11:24;100135.38;;;7.93;100.00
76448;BME280;65284;51.040;13.722;2024-02-15T03:13:50;100132.88;;;7.91;100.00
76448;BME280;65284;51.040;13.722;2024-02-15T03:16:17;100129.22;;;7.92;100.00
76448;BME280;65284;51.040;13.722;2024-02-15T03:18:43;100129.94;;;7.94;100.00
76448;BME280;65284;51.040;13.722;2024-02-15T03:21:10;100134.41;;;7.94;100.00
76448;BME280;65284;51.040;13.722;2024-02-15T03:23:37;100125.34;;;7.96;100.00
76448;BME280;65284;51.040;13.722;2024-02-15T03:26:03;100129.81;;;7.96;100.00
76448;BME280;65284;51.040;13.722;2024-02-15T03:28:30;100115.59;;;7.97;100.00
76448;BME280;65284;51.040;13.722;2024-02-15T03:30:56;100121.59;;;7.99;100.00
76448;BME280;65284;51.040;13.722;2024-02-15T03:33:23;100128.69;;;8.08;100.00
76448;BME280;65284;51.040;13.722;2024-02-15T03:35:53;100126.69;;;8.10;100.00
76448;BME280;65284;51.040;13.722;2024-02-15T03:38:19;100118.38;;;8.05;100.00
76448;BME280;65284;51.040;13.722;2024-02-15T03:40:46;100124.78;;;8.03;100.00
76448;BME280;65284;51.040;13.722;2024-02-15T03:43:12;100121.31;;;8.02;100.00
76448;BME280;65284;51.040;13.722;2024-02-15T03:45:39;100122.25;;;8.01;100.00
76448;BME280;65284;51.040;13.722;2024-02-15T03:48:07;100126.59;;;8.02;100.00
76448;BME280;65284;51.040;13.722;2024-02-15T03:50:35;100120.59;;;8.00;100.00
76448;BME280;65284;51.040;13.722;2024-02-15T03:53:02;100127.56;;;8.01;100.00
76448;BME280;65284;51.040;13.722;2024-02-15T03:55:28;100127.56;;;8.01;100.00
76448;BME280;65284;51.040;13.722;2024-02-15T03:57:55;100134.81;;;7.99;100.00
76448;BME280;65284;51.040;13.722;2024-02-15T04:00:23;100139.00;;;8.02;100.00
76448;BME280;65284;51.040;13.722;2024-02-15T04:02:51;100129.25;;;8.02;100.00
76448;BME280;65284;51.040;13.722;2024-02-15T04:05:17;100128.97;;;8.05;100.00
76448;BME280;65284;51.040;13.722;2024-02-15T04:07:45;100136.31;;;8.11;100.00
76448;BME280;65284;51.040;13.722;2024-02-15T04:10:12;100133.69;;;8.11;100.00
76448;BME280;65284;51.040;13.722;2024-02-15T04:12:39;100136.03;;;8.14;100.00
76448;BME280;65284;51.040;13.722;2024-02-15T04:15:08;100141.31;;;8.14;100.00
76448;BME280;65284;51.040;13.722;2024-02-15T04:17:40;100133.81;;;8.19;100.00
76448;BME280;65284;51.040;13.722;2024-02-15T04:20:08;100138.53;;;8.16;100.00
76448;BME280;65284;51.040;13.722;2024-02-15T04:22:35;100138.38;;;8.27;100.00
76448;BME280;65284;51.040;13.722;2024-02-15T04:25:05;100142.28;;;8.23;100.00
76448;BME280;65284;51.040;13.722;2024-02-15T04:27:33;100132.81;;;8.20;100.00
76448;BME280;65284;51.040;13.722;2024-02-15T04:29:59;100139.78;;;8.21;100.00
76448;BME280;65284;51.040;13.722;2024-02-15T04:32:26;100143.41;;;8.20;100.00
76448;BME280;65284;51.040;13.722;2024-02-15T04:34:53;100139.50;;;8.25;100.00
76448;BME280;65284;51.040;13.722;2024-02-15T04:37:19;100144.22;;;8.21;100.00
76448;BME280;65284;51.040;13.722;2024-02-15T04:39:46;100148.69;;;8.20;100.00
76448;BME280;65284;51.040;13.722;2024-02-15T04:42:14;100144.22;;;8.21;100.00
76448;BME280;65284;51.040;13.722;2024-02-15T04:44:41;100140.06;;;8.18;100.00
76448;BME280;65284;51.040;13.722;2024-02-15T04:47:08;100140.34;;;8.15;100.00
76448;BME280;65284;51.040;13.722;2024-02-15T04:49:35;100142.03;;;8.16;100.00
76448;BME280;65284;51.040;13.722;2024-02-15T04:52:05;100145.09;;;8.12;100.00
76448;BME280;65284;51.040;13.722;2024-02-15T04:54:32;100147.72;;;8.12;100.00
76448;BME280;65284;51.040;13.722;2024-02-15T04:56:59;100144.25;;;8.11;100.00
76448;BME280;65284;51.040;13.722;2024-02-15T04:59:27;100149.56;;;8.11;100.00
76448;BME280;65284;51.040;13.722;2024-02-15T05:01:55;100152.03;;;8.13;100.00
76448;BME280;65284;51.040;13.722;2024-02-15T05:04:22;100147.03;;;8.10;100.00
76448;BME280;65284;51.040;13.722;2024-02-15T05:06:51;100149.84;;;8.08;100.00
76448;BME280;65284;51.040;13.722;2024-02-15T05:09:17;100153.44;;;8.07;100.00
76448;BME280;65284;51.040;13.722;2024-02-15T05:11:44;100147.84;;;8.10;100.00
76448;BME280;65284;51.040;13.722;2024-02-15T05:14:15;100145.09;;;8.12;100.00
76448;BME280;65284;51.040;13.722;2024-02-15T05:16:46;100155.38;;;8.15;100.00
76448;BME280;65284;51.040;13.722;2024-02-15T05:19:17;100152.63;;;8.16;100.00
76448;BME280;65284;51.040;13.722;2024-02-15T05:21:45;100151.75;;;8.16;100.00
76448;BME280;65284;51.040;13.722;2024-02-15T05:24:16;100148.97;;;8.17;100.00
76448;BME280;65284;51.040;13.722;2024-02-15T05:26:44;100161.22;;;8.18;100.00
76448;BME280;65284;51.040;13.722;2024-02-15T05:29:13;100159.56;;;8.17;100.00
76448;BME280;65284;51.040;13.722;2024-02-15T05:31:42;100163.19;;;8.16;100.00
76448;BME280;65284;51.040;13.722;2024-02-15T05:34:10;100157.91;;;8.16;100.00
76448;BME280;65284;51.040;13.722;2024-02-15T05:36:38;100154.13;;;8.19;100.00
76448;BME280;65284;51.040;13.722;2024-02-15T05:39:05;100157.63;;;8.19;100.00
76448;BME280;65284;51.040;13.722;2024-02-15T05:41:31;100162.91;;;8.19;100.00
76448;BME280;65284;51.040;13.722;2024-02-15T05:44:01;100167.06;;;8.22;100.00
76448;BME280;65284;51.040;13.722;2024-02-15T05:46:28;100166.22;;;8.21;100.00
76448;BME280;65284;51.040;13.722;2024-02-15T05:48:54;100171.53;;;8.21;100.00
76448;BME280;65284;51.040;13.722;2024-02-15T05:51:22;100163.88;;;8.18;100.00
76448;BME280;65284;51.040;13.722;2024-02-15T05:53:49;100159.56;;;8.17;100.00
76448;BME280;65284;51.040;13.722;2024-02-15T05:56:16;100168.47;;;8.16;100.00
76448;BME280;65284;51.040;13.722;2024-02-15T05:58:43;100165.84;;;8.16;100.00
76448;BME280;65284;51.040;13.722;2024-02-15T06:01:09;100170.44;;;8.14;100.00
76448;BME280;65284;51.040;13.722;2024-02-15T06:03:39;100167.78;;;8.14;100.00
76448;BME280;65284;51.040;13.722;2024-02-15T06:06:06;100170.44;;;8.14;100.00
76448;BME280;65284;51.040;13.722;2024-02-15T06:08:34;100172.91;;;8.16;100.00
76448;BME280;65284;51.040;13.722;2024-02-15T06:11:01;100184.38;;;8.16;100.00
76448;BME280;65284;51.040;13.722;2024-02-15T06:13:28;100189.66;;;8.16;100.00
76448;BME280;65284;51.040;13.722;2024-02-15T06:15:55;100191.44;;;8.16;100.00
76448;BME280;65284;51.040;13.722;2024-02-15T06:18:23;100187.97;;;8.15;100.00
76448;BME280;65284;51.040;13.722;2024-02-15T06:20:51;100193.25;;;8.15;100.00
76448;BME280;65284;51.040;13.722;2024-02-15T06:23:21;100192.28;;;8.16;100.00
76448;BME280;65284;51.040;13.722;2024-02-15T06:25:51;100195.88;;;8.25;100.00
76448;BME280;65284;51.040;13.722;2024-02-15T06:28:20;100197.97;;;8.21;100.00
76448;BME280;65284;51.040;13.722;2024-02-15T06:31:09;100203.56;;;8.18;100.00
76448;BME280;65284;51.040;13.722;2024-02-15T06:34:05;100207.19;;;8.17;100.00
76448;BME280;65284;51.040;13.722;2024-02-15T06:36:53;100207.19;;;8.17;100.00
76448;BME280;65284;51.040;13.722;2024-02-15T06:39:38;100210.81;;;8.16;100.00
76448;BME280;65284;51.040;13.722;2024-02-15T06:42:12;100213.59;;;8.15;100.00
76448;BME280;65284;51.040;13.722;2024-02-15T06:44:43;100214.41;;;8.15;100.00
76448;BME280;65284;51.040;13.722;2024-02-15T06:47:11;100214.41;;;8.15;100.00
76448;BME280;65284;51.040;13.722;2024-02-15T06:49:39;100209.94;;;8.16;100.00
76448;BME280;65284;51.040;13.722;2024-02-15T06:52:10;100209.81;;;8.17;100.00
76448;BME280;65284;51.040;13.722;2024-02-15T06:54:41;100201.88;;;8.17;100.00
76448;BME280;65284;51.040;13.722;2024-02-15T06:57:09;100207.19;;;8.17;100.00
76448;BME280;65284;51.040;13.722;2024-02-15T06:59:35;100206.47;;;8.15;100.00
76448;BME280;65284;51.040;13.722;2024-02-15T07:02:04;100211.66;;;8.17;100.00
76448;BME280;65284;51.040;13.722;2024-02-15T07:04:35;100206.19;;;8.18;100.00
76448;BME280;65284;51.040;13.722;2024-02-15T07:07:03;100207.72;;;8.21;100.00
76448;BME280;65284;51.040;13.722;2024-02-15T07:09:29;100206.75;;;8.22;100.00
76448;BME280;65284;51.040;13.722;2024-02-15T07:11:56;100212.19;;;8.20;100.00
76448;BME280;65284;51.040;13.722;2024-02-15T07:14:24;100208.00;;;8.18;100.00
76448;BME280;65284;51.040;13.722;2024-02-15T07:16:51;100202.44;;;8.21;100.00
76448;BME280;65284;51.040;13.722;2024-02-15T07:19:18;100204.97;;;8.23;100.00
76448;BME280;65284;51.040;13.722;2024-02-15T07:21:45;100196.75;;;8.26;100.00
76448;BME280;65284;51.040;13.722;2024-02-15T07:24:13;100200.91;;;8.28;100.00
76448;BME280;65284;51.040;13.722;2024-02-15T07:26:40;100188.22;;;8.32;100.00
76448;BME280;65284;51.040;13.722;2024-02-15T07:29:07;100187.66;;;8.38;100.00
76448;BME280;65284;51.040;13.722;2024-02-15T07:31:34;100198.53;;;8.35;100.00
76448;BME280;65284;51.040;13.722;2024-02-15T07:34:01;100200.75;;;8.39;100.00
76448;BME280;65284;51.040;13.722;2024-02-15T07:36:30;100206.63;;;8.43;100.00
76448;BME280;65284;51.040;13.722;2024-02-15T07:38:56;100202.72;;;8.47;100.00
76448;BME280;65284;51.040;13.722;2024-02-15T07:41:28;100203.41;;;8.49;100.00
76448;BME280;65284;51.040;13.722;2024-02-15T07:43:55;100203.81;;;8.54;100.00
76448;BME280;65284;51.040;13.722;2024-02-15T07:46:22;100203.38;;;8.59;100.00
76448;BME280;65284;51.040;13.722;2024-02-15T07:48:48;100206.88;;;8.59;100.00
76448;BME280;65284;51.040;13.722;2024-02-15T07:51:16;100202.41;;;8.60;100.00
76448;BME280;65284;51.040;13.722;2024-02-15T07:53:44;100206.28;;;8.65;100.00
76448;BME280;65284;51.040;13.722;2024-02-15T07:56:11;100204.34;;;8.68;100.00
76448;BME280;65284;51.040;13.722;2024-02-15T07:58:43;100210.72;;;8.75;100.00
76448;BME280;65284;51.040;13.722;2024-02-15T08:01:18;100206.25;;;8.85;100.00
76448;BME280;65284;51.040;13.722;2024-02-15T08:03:49;100205.25;;;8.86;100.00
76448;BME280;65284;51.040;13.722;2024-02-15T08:06:16;100210.13;;;8.91;100.00
76448;BME280;65284;51.040;13.722;2024-02-15T08:08:46;100210.66;;;8.94;100.00
76448;BME280;65284;51.040;13.722;2024-02-15T08:11:16;100207.44;;;9.00;100.00
76448;BME280;65284;51.040;13.722;2024-02-15T08:13:50;100196.25;;;9.06;100.00
76448;BME280;65284;51.040;13.722;2024-02-15T08:16:21;100199.97;;;9.14;100.00
76448;BME280;65284;51.040;13.722;2024-02-15T08:18:54;100193.53;;;9.16;100.00
76448;BME280;65284;51.040;13.722;2024-02-15T08:21:28;100181.53;;;9.22;100.00
76448;BME280;65284;51.040;13.722;2024-02-15T08:24:00;100175.94;;;9.25;100.00
76448;BME280;65284;51.040;13.722;2024-02-15T08:26:28;100178.69;;;9.33;100.00
76448;BME280;65284;51.040;13.722;2024-02-15T08:28:56;100175.03;;;9.34;100.00
76448;BME280;65284;51.040;13.722;2024-02-15T08:31:23;100171.41;;;9.35;100.00
76448;BME280;65284;51.040;13.722;2024-02-15T08:33:49;100170.00;;;9.41;100.00
76448;BME280;65284;51.040;13.722;2024-02-15T08:36:16;100170.53;;;9.44;100.00
76448;BME280;65284;51.040;13.722;2024-02-15T08:38:43;100175.53;;;9.47;100.00
76448;BME280;65284;51.040;13.722;2024-02-15T08:41:12;100178.78;;;9.59;100.00
76448;BME280;65284;51.040;13.722;2024-02-15T08:43:38;100179.31;;;9.63;100.00
76448;BME280;65284;51.040;13.722;2024-02-15T08:46:07;100179.53;;;9.69;100.00
76448;BME280;65284;51.040;13.722;2024-02-15T08:48:34;100181.75;;;9.74;100.00
76448;BME280;65284;51.040;13.722;2024-02-15T08:51:02;100181.44;;;9.77;100.00
76448;BME280;65284;51.040;13.722;2024-02-15T08:53:29;100193.41;;;9.81;100.00
76448;BME280;65284;51.040;13.722;2024-02-15T08:55:55;100193.31;;;9.91;100.00
76448;BME280;65284;51.040;13.722;2024-02-15T08:58:22;100190.22;;;9.95;100.00
76448;BME280;65284;51.040;13.722;2024-02-15T09:00:48;100190.63;;;10.00;100.00
76448;BME280;65284;51.040;13.722;2024-02-15T09:03:15;100189.31;;;10.05;100.00
76448;BME280;65284;51.040;13.722;2024-02-15T09:05:41;100197.97;;;10.07;100.00
76448;BME280;65284;51.040;13.722;2024-02-15T09:08:08;100194.31;;;10.08;100.00
76448;BME280;65284;51.040;13.722;2024-02-15T09:10:34;100199.31;;;10.11;100.00
76448;BME280;65284;51.040;13.722;2024-02-15T09:13:02;100197.19;;;10.14;100.00
76448;BME280;65284;51.040;13.722;2024-02-15T09:15:29;100200.38;;;10.18;100.00
76448;BME280;65284;51.040;13.722;2024-02-15T09:17:57;100199.38;;;10.19;100.00
76448;BME280;65284;51.040;13.722;2024-02-15T09:20:24;100209.00;;;10.20;100.00
76448;BME280;65284;51.040;13.722;2024-02-15T09:22:54;100198.56;;;10.18;100.00
76448;BME280;65284;51.040;13.722;2024-02-15T09:25:22;100203.56;;;10.21;100.00
76448;BME280;65284;51.040;13.722;2024-02-15T09:27:50;100204.09;;;10.25;100.00
76448;BME280;65284;51.040;13.722;2024-02-15T09:30:17;100196.66;;;10.29;100.00
76448;BME280;65284;51.040;13.722;2024-02-15T09:32:44;100197.88;;;10.34;100.00
76448;BME280;65284;51.040;13.722;2024-02-15T09:35:12;100204.38;;;10.40;100.00
76448;BME280;65284;51.040;13.722;2024-02-15T09:37:46;100200.72;;;10.41;100.00
76448;BME280;65284;51.040;13.722;2024-02-15T09:40:17;100199.75;;;10.42;100.00
76448;BME280;65284;51.040;13.722;2024-02-15T09:42:44;100207.56;;;10.43;100.00
76448;BME280;65284;51.040;13.722;2024-02-15T09:45:12;100201.94;;;10.46;100.00
76448;BME280;65284;51.040;13.722;2024-02-15T09:47:40;100207.94;;;10.48;100.00
76448;BME280;65284;51.040;13.722;2024-02-15T09:50:09;100218.25;;;10.52;100.00
76448;BME280;65284;51.040;13.722;2024-02-15T09:52:52;100212.63;;;10.55;100.00
76448;BME280;65284;51.040;13.722;2024-02-15T09:55:19;100215.97;;;10.57;100.00
76448;BME280;65284;51.040;13.722;2024-02-15T09:57:46;100215.13;;;10.56;100.00
76448;BME280;65284;51.040;13.722;2024-02-15T10:00:14;100211.63;;;10.56;100.00
76448;BME280;65284;51.040;13.722;2024-02-15T10:02:46;100210.66;;;10.57;100.00
76448;BME280;65284;51.040;13.722;2024-02-15T10:05:13;100211.31;;;10.59;100.00
76448;BME280;65284;51.040;13.722;2024-02-15T10:07:43;100213.50;;;10.63;100.00
76448;BME280;65284;51.040;13.722;2024-02-15T10:10:21;100212.69;;;10.63;100.00
76448;BME280;65284;51.040;13.722;2024-02-15T10:12:52;100201.06;;;10.64;100.00
76448;BME280;65284;51.040;13.722;2024-02-15T10:18:04;100201.13;;;10.72;100.00
76448;BME280;65284;51.040;13.722;2024-02-15T10:20:32;100202.63;;;10.75;100.00
76448;BME280;65284;51.040;13.722;2024-02-15T10:25:27;100197.50;;;10.81;100.00
76448;BME280;65284;51.040;13.722;2024-02-15T10:28:07;100202.50;;;10.84;100.00
76448;BME280;65284;51.040;13.722;2024-02-15T10:30:38;100192.41;;;10.88;100.00
76448;BME280;65284;51.040;13.722;2024-02-15T10:33:06;100199.53;;;10.87;100.00
76448;BME280;65284;51.040;13.722;2024-02-15T10:35:34;100201.88;;;10.90;100.00
76448;BME280;65284;51.040;13.722;2024-02-15T10:38:06;100201.22;;;10.88;100.00
76448;BME280;65284;51.040;13.722;2024-02-15T10:40:37;100208.88;;;10.91;100.00
76448;BME280;65284;51.040;13.722;2024-02-15T10:43:05;100195.59;;;10.91;100.00
76448;BME280;65284;51.040;13.722;2024-02-15T10:45:34;100194.28;;;10.96;100.00
76448;BME280;65284;51.040;13.722;2024-02-15T10:48:00;100191.97;;;11.01;100.00
76448;BME280;65284;51.040;13.722;2024-02-15T10:50:27;100191.47;;;11.05;100.00
76448;BME280;65284;51.040;13.722;2024-02-15T10:52:56;100183.19;;;11.08;100.00
76448;BME280;65284;51.040;13.722;2024-02-15T10:55:37;100179.06;;;11.14;100.00
76448;BME280;65284;51.040;13.722;2024-02-15T10:58:06;100174.44;;;11.16;100.00
76448;BME280;65284;51.040;13.722;2024-02-15T11:00:33;100175.75;;;11.20;100.00
76448;BME280;65284;51.040;13.722;2024-02-15T11:03:04;100176.25;;;11.24;100.00
76448;BME280;65284;51.040;13.722;2024-02-15T11:05:35;100177.78;;;11.18;100.00
76448;BME280;65284;51.040;13.722;2024-02-15T11:08:10;100176.75;;;11.19;100.00
76448;BME280;65284;51.040;13.722;2024-02-15T11:10:37;100165.13;;;11.20;100.00
76448;BME280;65284;51.040;13.722;2024-02-15T11:13:05;100177.78;;;11.18;100.00
76448;BME280;65284;51.040;13.722;2024-02-15T11:15:45;100166.50;;;11.24;100.00
76448;BME280;65284;51.040;13.722;2024-02-15T11:18:13;100168.31;;;11.32;100.00
76448;BME280;65284;51.040;13.722;2024-02-15T11:20:59;100168.03;;;11.43;100.00
76448;BME280;65284;51.040;13.722;2024-02-15T11:23:26;100163.22;;;11.55;100.00
76448;BME280;65284;51.040;13.722;2024-02-15T11:26:02;100162.75;;;11.68;100.00
76448;BME280;65284;51.040;13.722;2024-02-15T11:30:56;100168.28;;;11.91;100.00
76448;BME280;65284;51.040;13.722;2024-02-15T11:33:32;100166.63;;;12.06;100.00
76448;BME280;65284;51.040;13.722;2024-02-15T11:36:06;100161.97;;;12.16;100.00
76448;BME280;65284;51.040;13.722;2024-02-15T11:38:34;100152.47;;;12.38;100.00
76448;BME280;65284;51.040;13.722;2024-02-15T11:41:05;100155.94;;;12.55;100.00
76448;BME280;65284;51.040;13.722;2024-02-15T11:43:49;100147.59;;;12.66;100.00
76448;BME280;65284;51.040;13.722;2024-02-15T11:46:27;100135.53;;;12.79;99.02
76448;BME280;65284;51.040;13.722;2024-02-15T11:48:58;100144.47;;;12.94;97.90
76448;BME280;65284;51.040;13.722;2024-02-15T11:54:04;100144.97;;;12.97;97.47
76448;BME280;65284;51.040;13.722;2024-02-15T11:59:15;100136.09;;;13.05;97.10
76448;BME280;65284;51.040;13.722;2024-02-15T12:01:59;100147.31;;;12.92;97.81
76448;BME280;65284;51.040;13.722;2024-02-15T12:04:44;100132.09;;;13.01;97.54
76448;BME280;65284;51.040;13.722;2024-02-15T12:07:29;100137.09;;;13.04;97.12
76448;BME280;65284;51.040;13.722;2024-02-15T12:10:17;100139.63;;;12.97;97.79
76448;BME280;65284;51.040;13.722;2024-02-15T12:13:03;100138.66;;;12.98;97.05
76448;BME280;65284;51.040;13.722;2024-02-15T12:15:58;100134.47;;;12.96;96.69
76448;BME280;65284;51.040;13.722;2024-02-15T12:18:43;100133.16;;;12.92;96.67
76448;BME280;65284;51.040;13.722;2024-02-15T12:21:14;100139.84;;;12.88;97.20
76448;BME280;65284;51.040;13.722;2024-02-15T12:23:44;100136.16;;;12.89;97.66
76448;BME280;65284;51.040;13.722;2024-02-15T12:26:12;100125.31;;;12.98;97.42
76448;BME280;65284;51.040;13.722;2024-02-15T12:28:41;100131.31;;;12.92;97.93
76448;BME280;65284;51.040;13.722;2024-02-15T12:31:13;100123.75;;;13.04;97.24
76448;BME280;65284;51.040;13.722;2024-02-15T12:33:40;100129.44;;;13.01;97.24
76448;BME280;65284;51.040;13.722;2024-02-15T12:36:07;100124.06;;;13.09;97.18
76448;BME280;65284;51.040;13.722;2024-02-15T12:38:35;100120.22;;;13.12;97.01
76448;BME280;65284;51.040;13.722;2024-02-15T12:41:18;100108.50;;;13.21;96.30
76448;BME280;65284;51.040;13.722;2024-02-15T12:43:45;100113.38;;;13.26;95.44
76448;BME280;65284;51.040;13.722;2024-02-15T12:46:11;100123.34;;;13.24;95.91
76448;BME280;65284;51.040;13.722;2024-02-15T12:48:38;100117.34;;;13.21;95.13
76448;BME280;65284;51.040;13.722;2024-02-15T12:51:14;100113.03;;;13.20;95.36
76448;BME280;65284;51.040;13.722;2024-02-15T12:53:41;100113.06;;;13.12;95.63
76448;BME280;65284;51.040;13.722;2024-02-15T12:56:08;100111.41;;;13.11;96.09
76448;BME280;65284;51.040;13.722;2024-02-15T12:58:37;100115.72;;;13.12;95.36
76448;BME280;65284;51.040;13.722;2024-02-15T13:01:05;100112.53;;;13.25;95.20